Time;durP1;ratioP1;P1;durP2;ratioP2;P2;SDS_P1;SDS_P2;PMS_P1;PMS_P2;Temp;Humidity;BMP_temperature;BMP_pressure;BME280_temperature;BME280_humidity;BME280_pressure;Samples;Min_cycle;Max_cycle;Signal;HPM_P1;HPM_P2
2022/03/09 00:02:03;;;;;;;4.97;4.33;;;;;;;17.14;36.74;97945.00;5007692;28;20222;-82
2022/03/09 00:04:31;;;;;;;5.33;4.60;;;;;;;14.80;36.91;97573.75;5028240;28;20630;-80
2022/03/09 00:07:00;;;;;;;5.73;5.00;;;;;;;17.82;36.69;98076.56;4990455;28;20206;-79
2022/03/09 00:09:27;;;;;;;5.20;4.70;;;;;;;15.03;36.70;97592.72;5005236;28;20218;-80
2022/03/09 00:11:56;;;;;;;4.97;4.47;;;;;;;17.06;36.90;97952.22;5004441;28;20304;-79
2022/03/09 00:14:25;;;;;;;5.87;4.50;;;;;;;17.16;36.60;97976.41;4980661;28;20575;-80
2022/03/09 00:16:54;;;;;;;5.30;4.57;;;;;;;15.54;36.65;97694.41;4960885;28;20315;-80
2022/03/09 00:19:21;;;;;;;6.10;5.20;;;;;;;16.90;36.64;97925.94;4985985;28;20194;-81
2022/03/09 00:21:48;;;;;;;5.93;5.30;;;;;;;17.78;36.86;98080.63;5009763;28;20230;-82
2022/03/09 00:24:16;;;;;;;6.17;4.90;;;;;;;11.26;36.00;96983.53;5009133;28;20240;-80
2022/03/09 00:26:43;;;;;;;5.97;4.90;;;;;;;17.09;36.89;97964.19;4993377;28;20607;-79
2022/03/09 00:29:10;;;;;;;6.83;5.20;;;;;;;17.76;36.72;98082.22;5002519;28;20699;-80
2022/03/09 00:31:42;;;;;;;5.40;4.90;;;;;;;16.08;36.63;97802.16;4982934;28;20249;-79
2022/03/09 00:34:09;;;;;;;4.83;4.30;;;;;;;11.51;36.59;97087.34;4986451;28;20281;-81
2022/03/09 00:36:39;;;;;;;5.33;4.70;;;;;;;6.31;36.55;96235.31;5006973;28;20289;-81
2022/03/09 00:39:05;;;;;;;5.53;4.93;;;;;;;15.27;36.61;97764.59;5009138;28;20198;-80
2022/03/09 00:41:32;;;;;;;5.43;4.93;;;;;;;11.66;36.53;97126.09;5016498;28;20226;-89
2022/03/09 00:43:59;;;;;;;5.73;5.13;;;;;;;7.46;37.14;96351.97;4993443;28;20316;-88
2022/03/09 00:46:26;;;;;;;5.50;5.00;;;;;;;6.08;36.76;96053.38;5012363;28;20564;-88
2022/03/09 00:48:53;;;;;;;5.80;4.77;;;;;;;11.49;36.72;97033.56;4979278;28;20248;-88
2022/03/09 00:51:22;;;;;;;6.03;4.83;;;;;;;7.15;36.68;96321.69;5004806;28;20230;-88
2022/03/09 00:53:49;;;;;;;6.23;5.27;;;;;;;17.28;36.60;97997.38;5008407;28;20198;-88
2022/03/09 00:56:19;;;;;;;5.77;5.07;;;;;;;6.49;36.47;96121.75;5042355;28;20217;-88
2022/03/09 00:58:48;;;;;;;5.80;5.27;;;;;;;10.90;36.40;96931.91;5025211;28;20209;-89
2022/03/09 01:01:15;;;;;;;5.90;5.30;;;;;;;15.63;36.46;97821.56;5035156;28;20214;-89
2022/03/09 01:03:42;;;;;;;9.10;5.70;;;;;;;10.52;36.51;96883.47;5027943;28;20210;-89
2022/03/09 01:06:14;;;;;;;5.20;4.70;;;;;;;8.96;36.63;96576.88;4990979;28;20230;-83
2022/03/09 01:08:43;;;;;;;6.10;5.50;;;;;;;14.36;36.47;97545.94;5002164;28;20203;-81
2022/03/09 01:11:10;;;;;;;7.93;5.60;;;;;;;14.04;36.39;97448.84;4980583;28;20237;-82
2022/03/09 01:13:37;;;;;;;5.93;5.33;;;;;;;14.49;36.17;97494.44;4984486;28;20226;-80
2022/03/09 01:16:06;;;;;;;6.27;5.53;;;;;;;13.71;36.14;97358.53;5008546;28;20296;-79
2022/03/09 01:18:43;;;;;;;5.87;5.10;;;;;;;17.19;36.18;97959.69;5005694;28;20217;-82
2022/03/09 01:21:10;;;;;;;5.90;5.23;;;;;;;14.25;36.54;97440.88;5008617;28;20666;-80
2022/03/09 01:23:37;;;;;;;6.73;5.60;;;;;;;11.56;36.18;97008.00;5007821;28;20213;-82
2022/03/09 01:26:03;;;;;;;5.17;4.67;;;;;;;10.55;36.17;96858.56;5008818;28;20198;-81
2022/03/09 01:28:30;;;;;;;5.90;5.30;;;;;;;13.00;35.93;97258.53;4979285;28;20198;-82
2022/03/09 01:30:57;;;;;;;6.10;5.17;;;;;;;17.73;36.40;98035.41;5004957;28;20237;-80
2022/03/09 01:33:24;;;;;;;5.80;5.20;;;;;;;17.20;35.98;97930.09;5008211;28;20329;-79
2022/03/09 01:35:51;;;;;;;6.03;5.30;;;;;;;11.36;35.93;96921.28;4991694;28;20256;-82
2022/03/09 01:38:19;;;;;;;6.10;5.50;;;;;;;8.04;36.11;96351.50;5008383;28;20673;-79
2022/03/09 01:40:45;;;;;;;5.60;4.93;;;;;;;17.72;36.44;98031.13;5003843;28;20222;-79
2022/03/09 01:43:18;;;;;;;6.07;5.47;;;;;;;9.83;35.98;96879.91;4999233;28;20664;-87
2022/03/09 01:45:47;;;;;;;5.80;5.20;;;;;;;14.63;36.31;97491.03;4966378;28;20202;-88
2022/03/09 01:48:14;;;;;;;6.40;5.70;;;;;;;12.15;36.10;97113.13;5009539;28;20236;-87
2022/03/09 01:50:41;;;;;;;5.93;5.33;;;;;;;7.06;36.36;96381.00;5010009;28;20230;-86
2022/03/09 02:14:40;;;;;;;5.77;5.17;;;;;;;17.21;35.88;97935.25;5286910;22;20241;-85
2022/03/09 02:17:17;;;;;;;5.90;4.93;;;;;;;14.89;35.79;97602.09;5046961;28;20660;-86
2022/03/09 02:19:45;;;;;;;6.47;5.43;;;;;;;16.05;35.96;97791.88;4997330;28;20663;-84
2022/03/09 02:22:40;;;;;;;5.97;5.23;;;;;;;17.85;35.94;98044.56;5014389;28;20718;-86
2022/03/09 02:25:09;;;;;;;6.37;5.67;;;;;;;13.09;36.18;97263.22;5039388;28;20204;-86
2022/03/09 02:27:36;;;;;;;6.60;5.27;;;;;;;12.82;35.99;97227.13;5029873;28;20201;-86
2022/03/09 02:30:05;;;;;;;6.60;5.60;;;;;;;16.59;35.86;97838.78;5029102;28;20600;-86
2022/03/09 02:32:31;;;;;;;5.93;5.33;;;;;;;16.52;35.74;97826.56;5032334;28;20710;-86
2022/03/09 02:34:58;;;;;;;5.73;5.20;;;;;;;15.39;35.75;97689.34;5013801;28;20204;-86
2022/03/09 02:37:25;;;;;;;5.50;5.00;;;;;;;15.38;35.90;97600.66;5012386;28;20212;-86
2022/03/09 02:39:52;;;;;;;6.03;5.43;;;;;;;14.22;36.06;97395.16;5029735;28;20197;-86
2022/03/09 02:42:19;;;;;;;5.70;5.10;;;;;;;14.77;35.91;97494.31;5029836;28;20294;-86
2022/03/09 02:44:48;;;;;;;5.70;5.10;;;;;;;14.09;35.96;97407.88;5029908;28;20205;-85
2022/03/09 02:47:15;;;;;;;5.33;4.87;;;;;;;13.65;36.04;97300.97;5046296;28;20284;-86
2022/03/09 02:49:42;;;;;;;5.37;4.87;;;;;;;16.63;36.21;97866.06;5015257;28;20721;-85
2022/03/09 02:52:10;;;;;;;5.90;5.30;;;;;;;13.42;35.78;97341.72;5035335;28;20266;-85
2022/03/09 02:54:36;;;;;;;5.97;5.37;;;;;;;16.08;35.94;97725.28;5045988;28;20644;-86
2022/03/09 02:57:03;;;;;;;5.50;4.93;;;;;;;17.66;35.97;98006.28;5046179;28;20292;-86
2022/03/09 02:59:30;;;;;;;7.33;5.13;;;;;;;17.43;36.23;97967.72;5013252;28;20284;-85
2022/03/09 03:01:56;;;;;;;5.40;4.90;;;;;;;17.19;35.98;97934.28;5031073;28;20220;-86
2022/03/09 03:04:23;;;;;;;5.77;5.17;;;;;;;16.66;36.22;97839.19;5035936;28;20253;-85
2022/03/09 03:06:50;;;;;;;5.77;5.23;;;;;;;16.63;35.63;97835.59;5036518;28;20319;-86
2022/03/09 03:09:16;;;;;;;6.53;5.30;;;;;;;17.14;35.96;97932.31;5029313;28;20297;-85
2022/03/09 03:11:44;;;;;;;5.67;5.00;;;;;;;17.12;35.76;97934.78;5028951;28;20704;-85
2022/03/09 03:14:11;;;;;;;5.70;5.10;;;;;;;17.20;36.06;97948.72;4999495;28;20753;-86
2022/03/09 03:16:37;;;;;;;5.93;5.33;;;;;;;17.15;36.14;97941.66;5009703;28;20638;-85
2022/03/09 03:19:04;;;;;;;6.60;5.30;;;;;;;16.96;35.75;97924.56;5025687;28;20202;-85
2022/03/09 03:21:31;;;;;;;5.57;4.77;;;;;;;17.26;36.30;97977.00;5026407;28;20324;-86
2022/03/09 03:23:58;;;;;;;5.77;5.17;;;;;;;17.43;35.87;98006.75;5025360;28;20915;-86
2022/03/09 03:26:25;;;;;;;5.50;5.00;;;;;;;17.67;36.05;98046.16;5029285;28;20263;-86
2022/03/09 03:28:52;;;;;;;4.87;4.37;;;;;;;16.73;36.21;97875.94;5047285;28;20252;-85
2022/03/09 03:31:19;;;;;;;5.83;5.03;;;;;;;16.15;35.88;97786.53;5028692;28;20220;-86
2022/03/09 03:33:47;;;;;;;6.07;5.43;;;;;;;17.76;36.09;98064.41;5012954;28;20291;-86
2022/03/09 03:36:15;;;;;;;5.63;4.80;;;;;;;17.78;36.07;98061.97;5031634;28;20212;-86
2022/03/09 03:38:42;;;;;;;5.40;4.90;;;;;;;16.90;35.45;97901.41;5033553;28;20292;-86
2022/03/09 03:41:08;;;;;;;5.43;4.90;;;;;;;17.68;35.65;98075.00;5012496;28;20229;-85
2022/03/09 03:57:05;;;;;;;7.63;5.40;;;;;;;13.68;35.71;97350.78;4156934;22;20224;-89
2022/03/09 03:59:49;;;;;;;6.10;4.90;;;;;;;13.34;35.84;97321.84;5053050;28;20192;-90
2022/03/09 04:02:41;;;;;;;4.90;4.40;;;;;;;14.29;36.27;97483.22;5032842;28;20157;-89
2022/03/09 04:05:23;;;;;;;5.10;4.60;;;;;;;12.90;36.01;97279.78;5032272;28;20162;-90
2022/03/09 04:08:21;;;;;;;5.13;4.63;;;;;;;13.79;35.73;97483.56;5030511;28;20237;-89
2022/03/09 04:11:21;;;;;;;6.47;4.80;;;;;;;16.66;36.01;97863.69;5033559;28;20219;-90
2022/03/09 04:14:01;;;;;;;5.07;4.57;;;;;;;13.58;35.38;97387.25;5031190;28;20226;-85
2022/03/09 04:16:28;;;;;;;5.40;4.90;;;;;;;14.18;35.63;97427.75;5014793;28;20206;-85
2022/03/09 04:18:56;;;;;;;5.80;4.83;;;;;;;12.88;35.87;97208.19;4992850;28;20589;-85
2022/03/09 04:21:22;;;;;;;5.37;4.83;;;;;;;17.02;35.94;97929.97;5026670;28;20250;-85
2022/03/09 04:23:49;;;;;;;5.10;4.60;;;;;;;17.39;35.95;97998.84;5014942;28;20248;-85
2022/03/09 04:26:16;;;;;;;5.20;4.70;;;;;;;17.13;35.61;97953.41;4976420;28;20695;-85
2022/03/09 04:28:42;;;;;;;5.83;5.07;;;;;;;16.41;35.78;97824.28;4997399;28;20285;-84
2022/03/09 04:31:09;;;;;;;5.27;4.77;;;;;;;17.30;35.82;97970.41;5012661;28;20735;-85
2022/03/09 04:33:36;;;;;;;5.73;4.97;;;;;;;17.73;35.65;98056.63;4978250;28;20252;-84
2022/03/09 04:36:04;;;;;;;5.23;4.73;;;;;;;17.26;35.28;97961.75;4994732;28;20201;-85
2022/03/09 04:38:31;;;;;;;6.07;4.97;;;;;;;17.23;35.87;97969.22;5043832;28;20296;-85
2022/03/09 04:40:57;;;;;;;6.87;4.77;;;;;;;17.85;35.79;98082.69;5002836;28;20293;-84
2022/03/09 04:43:24;;;;;;;5.87;4.73;;;;;;;15.74;35.44;97712.44;5022974;28;20687;-84
2022/03/09 04:45:51;;;;;;;5.27;4.77;;;;;;;16.08;35.95;97786.09;5014960;28;20205;-85
2022/03/09 04:48:17;;;;;;;5.67;5.13;;;;;;;16.47;35.66;97874.53;5007691;28;20194;-82
2022/03/09 04:50:44;;;;;;;5.70;5.10;;;;;;;17.32;35.74;98002.72;5026462;28;20222;-84
2022/03/09 04:53:12;;;;;;;5.73;4.93;;;;;;;14.25;35.43;97460.19;4995146;28;20598;-85
2022/03/09 04:55:38;;;;;;;6.03;4.80;;;;;;;14.94;35.16;97579.56;5022591;28;20202;-83
2022/03/09 04:58:05;;;;;;;5.17;4.67;;;;;;;17.21;35.61;97982.63;5040579;28;20260;-84
2022/03/09 05:00:32;;;;;;;6.50;4.70;;;;;;;17.54;35.52;98048.84;5008899;28;20285;-84
2022/03/09 05:02:58;;;;;;;5.27;4.77;;;;;;;16.53;35.87;97863.81;5030141;28;20217;-84
2022/03/09 05:05:25;;;;;;;5.60;4.80;;;;;;;17.32;35.58;98009.47;5007811;28;20640;-84
2022/03/09 05:07:52;;;;;;;5.43;4.70;;;;;;;15.10;35.50;97703.66;4999846;28;20303;-84
2022/03/09 05:10:19;;;;;;;4.50;4.10;;;;;;;16.46;35.94;97930.25;5008048;28;20222;-83
2022/03/09 05:12:45;;;;;;;5.53;4.90;;;;;;;15.98;35.54;97784.72;4999153;28;20252;-84
2022/03/09 05:15:12;;;;;;;4.77;4.27;;;;;;;16.74;35.49;97916.63;4986847;28;20718;-83
2022/03/09 05:17:40;;;;;;;7.23;5.53;;;;;;;16.61;35.64;97904.03;5020710;28;20209;-84
2022/03/09 05:20:08;;;;;;;5.10;4.57;;;;;;;16.88;35.26;97940.19;4991654;28;20651;-82
2022/03/09 05:22:34;;;;;;;5.53;4.57;;;;;;;17.14;35.49;97991.56;5007708;28;20291;-88
2022/03/09 05:25:01;;;;;;;5.43;4.57;;;;;;;17.51;35.54;98052.88;4986170;28;20615;-83
2022/03/09 05:27:28;;;;;;;5.23;4.73;;;;;;;16.21;35.53;97835.03;5022707;28;20251;-84
2022/03/09 05:29:58;;;;;;;5.93;4.57;;;;;;;16.40;35.83;97859.72;5029284;28;20651;-84
2022/03/09 05:32:24;;;;;;;6.90;4.63;;;;;;;17.22;35.40;98010.66;5002970;28;20237;-84
2022/03/09 05:34:51;;;;;;;5.47;4.97;;;;;;;16.86;35.64;97959.53;4998318;28;20233;-84
2022/03/09 05:37:22;;;;;;;5.13;4.63;;;;;;;17.96;35.72;98147.72;4991412;28;20284;-82
2022/03/09 05:39:49;;;;;;;5.57;4.67;;;;;;;17.47;35.57;98058.59;5014145;28;20209;-82
2022/03/09 05:42:16;;;;;;;5.20;4.70;;;;;;;16.43;35.79;97903.00;5044881;28;20225;-84
2022/03/09 05:44:42;;;;;;;5.50;4.80;;;;;;;17.67;35.90;98117.31;5043635;28;20245;-84
2022/03/09 05:47:23;;;;;;;6.03;4.77;;;;;;;17.48;36.23;98071.38;5026994;28;20296;-84
2022/03/09 05:49:49;;;;;;;4.67;4.27;;;;;;;17.40;36.27;98064.09;5026510;28;20259;-83
2022/03/09 05:52:16;;;;;;;4.90;4.40;;;;;;;17.89;36.20;98149.84;5026433;28;20317;-84
2022/03/09 05:54:45;;;;;;;5.10;4.60;;;;;;;17.30;36.37;98055.13;5026840;28;20264;-84
2022/03/09 05:57:12;;;;;;;4.33;3.90;;;;;;;17.30;35.94;98049.16;5026726;28;20303;-84
2022/03/09 05:59:39;;;;;;;5.10;4.50;;;;;;;16.79;36.03;97965.09;5026014;28;20357;-85
2022/03/09 06:02:06;;;;;;;5.03;4.53;;;;;;;17.25;36.16;98053.09;5061702;28;20292;-83
2022/03/09 06:04:32;;;;;;;4.80;4.30;;;;;;;16.20;35.69;97871.31;5028704;28;20259;-84
2022/03/09 06:07:01;;;;;;;5.03;4.53;;;;;;;17.22;36.38;98055.47;5009601;28;20194;-83
2022/03/09 06:09:28;;;;;;;6.60;4.97;;;;;;;17.15;36.40;98061.91;4993884;28;20300;-84
2022/03/09 06:11:54;;;;;;;5.10;4.60;;;;;;;17.03;36.64;98035.84;4995943;28;20261;-84
2022/03/09 06:14:21;;;;;;;5.77;5.17;;;;;;;16.40;35.97;97915.50;5023906;28;20226;-84
2022/03/09 06:16:49;;;;;;;5.17;4.63;;;;;;;16.72;36.21;97975.72;5026576;28;20199;-84
2022/03/09 06:19:16;;;;;;;4.57;4.10;;;;;;;16.95;35.99;98016.78;5010077;28;20570;-82
2022/03/09 06:21:43;;;;;;;4.80;4.30;;;;;;;17.18;36.12;98059.53;5027031;28;20225;-85
2022/03/09 06:24:09;;;;;;;6.03;4.37;;;;;;;17.79;36.21;98175.56;5013430;28;20240;-82
2022/03/09 06:26:39;;;;;;;5.80;5.00;;;;;;;16.48;36.34;97961.63;5013669;28;20232;-84
2022/03/09 06:29:05;;;;;;;5.97;4.93;;;;;;;17.00;36.03;98050.91;5013604;28;21044;-83
2022/03/09 06:31:32;;;;;;;5.03;4.53;;;;;;;17.07;36.13;98054.66;5028735;28;20316;-85
2022/03/09 06:33:59;;;;;;;5.07;4.37;;;;;;;17.31;36.19;98101.69;5029234;28;20288;-84
2022/03/09 06:36:25;;;;;;;5.30;4.80;;;;;;;17.19;36.53;98086.69;5009890;28;20573;-84
2022/03/09 06:38:52;;;;;;;5.60;5.10;;;;;;;17.29;36.58;98106.69;5027769;28;20280;-83
2022/03/09 06:41:18;;;;;;;6.00;4.83;;;;;;;17.31;36.10;98112.75;5013109;28;20229;-84
2022/03/09 06:43:45;;;;;;;7.93;5.30;;;;;;;17.40;35.83;98123.41;5013318;28;20281;-84
2022/03/09 06:46:11;;;;;;;5.17;4.63;;;;;;;16.95;36.02;98042.16;4996103;28;20263;-83
2022/03/09 06:48:38;;;;;;;5.27;4.70;;;;;;;16.93;36.03;98036.13;5011403;28;20206;-80
2022/03/09 06:51:05;;;;;;;6.93;5.10;;;;;;;16.68;35.94;98005.09;5026598;28;20608;-82
2022/03/09 06:53:37;;;;;;;6.27;5.67;;;;;;;16.98;36.00;98070.25;4996663;28;20217;-82
2022/03/09 06:56:04;;;;;;;5.70;5.07;;;;;;;17.43;35.75;98126.16;5010881;28;20237;-81
2022/03/09 06:58:31;;;;;;;5.93;4.97;;;;;;;17.54;36.03;98160.66;5012268;28;20204;-83
2022/03/09 07:00:58;;;;;;;5.30;4.80;;;;;;;17.35;36.10;98146.84;5011383;28;20277;-83
2022/03/09 07:03:25;;;;;;;6.67;5.43;;;;;;;17.12;35.33;98081.19;4995015;28;20220;-83
2022/03/09 07:05:52;;;;;;;8.00;5.60;;;;;;;15.89;35.46;97890.66;4990762;28;20206;-83
2022/03/09 07:08:19;;;;;;;8.53;5.53;;;;;;;17.62;36.11;98171.25;5008681;28;20311;-84
2022/03/09 07:10:46;;;;;;;6.37;5.13;;;;;;;16.89;35.84;98041.81;5011141;28;20265;-84
2022/03/09 07:13:12;;;;;;;11.53;8.37;;;;;;;17.46;32.83;98141.56;5012109;28;20226;-84
2022/03/09 07:15:39;;;;;;;13.97;9.40;;;;;;;17.35;31.95;98124.81;5012420;28;20202;-84
2022/03/09 07:18:06;;;;;;;13.30;10.23;;;;;;;17.52;30.72;98162.22;5013241;28;20289;-84
2022/03/09 07:20:32;;;;;;;14.80;10.07;;;;;;;16.82;30.81;98041.41;5016517;28;20281;-84
2022/03/09 07:22:59;;;;;;;18.70;11.57;;;;;;;17.49;31.19;98174.78;5044408;28;20300;-84
2022/03/09 07:25:26;;;;;;;15.43;10.47;;;;;;;17.04;30.72;98087.50;5016555;28;20751;-82
2022/03/09 07:28:00;;;;;;;20.17;11.20;;;;;;;17.02;31.41;98087.41;5031342;28;20193;-85
2022/03/09 07:30:27;;;;;;;15.93;10.27;;;;;;;16.75;32.27;98055.41;5013029;28;20652;-84
2022/03/09 07:32:56;;;;;;;17.50;10.47;;;;;;;17.47;33.18;98189.03;5029562;28;20820;-84
2022/03/09 07:35:23;;;;;;;11.97;9.70;;;;;;;16.61;33.04;98033.44;5013340;28;20216;-85
2022/03/09 07:37:52;;;;;;;15.40;10.03;;;;;;;17.03;33.37;98095.91;5013236;28;20197;-84
2022/03/09 07:40:20;;;;;;;13.77;9.47;;;;;;;16.34;33.59;97981.13;5013656;28;20209;-84
2022/03/09 07:42:46;;;;;;;11.13;8.90;;;;;;;17.05;33.51;98107.88;5013063;28;20253;-84
2022/03/09 07:45:13;;;;;;;15.43;9.07;;;;;;;17.26;34.05;98147.19;5013296;28;20232;-84
2022/03/09 07:47:39;;;;;;;11.97;8.90;;;;;;;17.26;33.67;98162.41;5029622;28;20197;-84
2022/03/09 07:50:07;;;;;;;12.97;8.37;;;;;;;16.61;33.98;98032.59;5012914;28;20733;-85
2022/03/09 07:52:34;;;;;;;13.90;9.07;;;;;;;16.81;34.09;98070.13;5017001;23;20266;-80
2022/03/09 07:55:04;;;;;;;13.63;8.33;;;;;;;17.03;34.08;98100.97;4967783;28;20233;-78
2022/03/09 07:57:30;;;;;;;13.13;8.50;;;;;;;16.72;34.27;98052.69;4989555;28;20301;-80
2022/03/09 07:59:57;;;;;;;10.93;7.87;;;;;;;15.90;34.45;97910.13;4972896;28;20230;-78
2022/03/09 08:02:23;;;;;;;9.03;7.70;;;;;;;17.38;33.83;98170.72;4973183;28;20223;-79
2022/03/09 08:04:50;;;;;;;10.53;7.57;;;;;;;17.16;34.44;98131.34;4996144;28;20206;-79
2022/03/09 08:07:17;;;;;;;12.50;8.37;;;;;;;17.74;33.72;98223.59;5004985;28;20233;-78
2022/03/09 08:09:43;;;;;;;10.77;8.07;;;;;;;15.26;33.36;97789.81;4998730;28;20291;-78
2022/03/09 08:12:11;;;;;;;12.37;8.07;;;;;;;17.75;33.47;98220.28;5003989;28;20257;-79
2022/03/09 08:14:38;;;;;;;9.27;7.53;;;;;;;17.17;34.27;98112.78;4995492;28;20211;-79
2022/03/09 08:17:04;;;;;;;11.37;7.90;;;;;;;17.73;34.28;98209.16;4984587;28;20741;-79
2022/03/09 08:19:31;;;;;;;10.97;7.23;;;;;;;17.46;34.46;98154.28;5000662;28;20250;-80
2022/03/09 08:21:58;;;;;;;9.43;7.23;;;;;;;17.12;33.87;98104.91;4989008;28;20266;-79
2022/03/09 08:24:25;;;;;;;9.40;7.87;;;;;;;17.76;33.90;98210.97;5000188;28;20234;-79
2022/03/09 08:26:51;;;;;;;8.10;6.73;;;;;;;17.16;34.02;98104.28;4977442;28;20238;-79
2022/03/09 08:29:18;;;;;;;8.53;7.00;;;;;;;17.77;34.19;98207.66;4980917;28;20199;-78
2022/03/09 08:31:44;;;;;;;8.80;6.70;;;;;;;17.78;34.19;98209.41;4993034;28;20215;-80
2022/03/09 08:34:12;;;;;;;7.93;6.47;;;;;;;17.78;34.23;98281.47;4999003;28;20206;-78
2022/03/09 08:36:40;;;;;;;8.63;6.37;;;;;;;17.78;34.54;98223.00;5004564;28;20202;-78
2022/03/09 08:39:06;;;;;;;7.43;5.87;;;;;;;16.48;34.19;97994.59;5013571;28;20246;-78
2022/03/09 08:41:33;;;;;;;7.50;6.17;;;;;;;15.06;34.88;97759.94;4995097;28;20698;-78
2022/03/09 08:44:03;;;;;;;7.97;6.30;;;;;;;17.79;34.67;98224.75;5013384;28;20202;-78
2022/03/09 08:46:32;;;;;;;6.77;5.63;;;;;;;17.80;34.73;98223.09;5012729;28;20210;-78
2022/03/09 08:48:59;;;;;;;7.20;6.50;;;;;;;17.80;34.62;98225.63;5013238;28;20305;-77
2022/03/09 08:51:26;;;;;;;7.10;6.07;;;;;;;17.73;34.54;98215.91;5012569;28;20890;-76
2022/03/09 08:53:52;;;;;;;8.77;6.03;;;;;;;17.81;34.53;98229.91;5011205;28;20265;-78
2022/03/09 08:56:21;;;;;;;8.00;5.70;;;;;;;17.82;34.53;98229.13;5011682;28;20819;-78
2022/03/09 08:58:51;;;;;;;6.60;5.90;;;;;;;17.81;34.62;98230.81;5012531;28;20206;-78
2022/03/09 09:01:23;;;;;;;6.80;5.60;;;;;;;17.43;34.84;98159.19;5012245;28;20209;-78
2022/03/09 09:04:10;;;;;;;7.90;5.80;;;;;;;17.83;34.74;98221.56;5012579;28;20285;-78
2022/03/09 09:06:37;;;;;;;7.17;4.90;;;;;;;17.82;34.68;98227.44;4995348;28;20206;-78
2022/03/09 09:09:03;;;;;;;6.60;5.40;;;;;;;17.82;34.95;98222.38;5011248;28;20234;-78
2022/03/09 09:11:30;;;;;;;7.27;5.33;;;;;;;17.26;34.74;98126.84;4995808;28;20301;-77
2022/03/09 09:13:57;;;;;;;8.10;5.70;;;;;;;16.59;35.20;98008.78;4986986;28;20230;-78
2022/03/09 09:16:25;;;;;;;5.50;5.00;;;;;;;17.07;34.96;98105.44;5008387;28;20273;-78
2022/03/09 09:18:55;;;;;;;5.97;5.07;;;;;;;17.43;34.79;98153.19;5012447;28;20206;-77
2022/03/09 09:21:23;;;;;;;7.80;5.27;;;;;;;17.85;35.28;98226.75;5011706;28;20228;-78
2022/03/09 09:23:49;;;;;;;5.83;4.97;;;;;;;17.84;34.93;98218.25;4995037;28;20272;-77
2022/03/09 09:26:18;;;;;;;8.23;5.47;;;;;;;17.45;34.66;98189.75;5011559;28;20217;-78
2022/03/09 09:29:05;;;;;;;6.60;5.03;;;;;;;17.85;35.01;98222.53;5011697;28;20509;-77
2022/03/09 09:31:32;;;;;;;6.10;5.33;;;;;;;17.85;35.22;98220.00;5010600;28;20246;-77
2022/03/09 09:33:58;;;;;;;5.43;4.77;;;;;;;17.53;35.27;98168.19;5011091;28;20233;-78
2022/03/09 09:36:25;;;;;;;5.67;5.07;;;;;;;17.86;35.05;98223.41;5010562;28;20221;-78
2022/03/09 09:38:54;;;;;;;5.70;5.07;;;;;;;17.86;35.23;98218.34;4997224;28;20247;-77
2022/03/09 09:41:24;;;;;;;6.70;4.80;;;;;;;17.85;35.08;98214.91;5008928;28;20619;-78
2022/03/09 09:43:51;;;;;;;5.50;4.77;;;;;;;17.60;35.38;98170.28;5015846;28;20245;-79
2022/03/09 09:46:18;;;;;;;4.93;4.40;;;;;;;17.86;35.22;98224.28;5007390;28;20203;-78
2022/03/09 09:48:44;;;;;;;4.97;4.40;;;;;;;17.86;35.47;98209.03;5010161;28;20256;-78
2022/03/09 09:51:12;;;;;;;5.40;4.70;;;;;;;17.49;35.29;98146.81;5012069;28;20290;-79
2022/03/09 09:53:42;;;;;;;5.83;4.80;;;;;;;17.85;35.63;98216.56;5010533;28;20237;-77
2022/03/09 09:56:09;;;;;;;5.43;4.43;;;;;;;17.83;35.89;98213.94;5012210;28;20268;-78
2022/03/09 09:58:42;;;;;;;6.67;4.47;;;;;;;16.89;35.36;98057.06;5011523;28;20725;-80
2022/03/09 10:01:09;;;;;;;5.70;4.60;;;;;;;17.45;36.04;98147.44;4993924;28;20293;-78
2022/03/09 10:03:36;;;;;;;4.97;4.47;;;;;;;17.44;35.96;98147.38;5010343;28;20281;-79
2022/03/09 10:06:03;;;;;;;5.13;4.47;;;;;;;17.81;36.03;98215.53;5010178;28;20264;-77
2022/03/09 10:08:35;;;;;;;5.13;4.23;;;;;;;17.81;35.72;98214.66;5011559;28;20782;-78
2022/03/09 10:11:03;;;;;;;4.53;4.03;;;;;;;17.80;36.08;98215.47;4997308;28;20249;-81
2022/03/09 10:13:35;;;;;;;5.53;4.77;;;;;;;15.86;36.01;97875.28;4973584;28;20246;-79
2022/03/09 10:16:20;;;;;;;5.67;3.97;;;;;;;17.78;35.82;98207.75;4991470;28;20199;-78
2022/03/09 10:18:55;;;;;;;4.30;3.90;;;;;;;15.30;36.24;97777.41;4990747;28;20638;-78
2022/03/09 10:21:28;;;;;;;4.27;3.87;;;;;;;14.57;35.92;97746.09;4990183;28;20211;-79
2022/03/09 10:24:09;;;;;;;4.87;4.00;;;;;;;17.76;36.13;98204.25;4990421;28;20223;-80
2022/03/09 10:26:35;;;;;;;4.47;4.07;;;;;;;17.76;36.29;98206.78;4991883;28;20866;-81
2022/03/09 10:29:03;;;;;;;4.40;3.73;;;;;;;12.85;36.27;97350.91;4992626;28;20214;-80
2022/03/09 10:31:38;;;;;;;5.17;4.07;;;;;;;17.75;36.16;98202.50;4990514;28;20199;-79
2022/03/09 10:34:05;;;;;;;4.20;3.80;;;;;;;17.76;36.47;98205.91;5003263;28;20198;-79
2022/03/09 10:36:32;;;;;;;4.07;3.67;;;;;;;17.42;36.14;98146.38;4988560;28;20202;-79
2022/03/09 10:39:12;;;;;;;5.20;4.40;;;;;;;16.06;35.98;97904.28;4987998;28;20225;-79
2022/03/09 10:41:39;;;;;;;4.57;4.00;;;;;;;14.75;35.89;97680.53;5009858;28;20198;-80
2022/03/09 10:44:05;;;;;;;5.30;4.07;;;;;;;17.76;36.01;98211.88;4997658;28;20199;-79
2022/03/09 10:46:45;;;;;;;4.40;4.00;;;;;;;17.76;36.14;98214.41;5008149;28;20255;-79
2022/03/09 10:49:13;;;;;;;4.53;4.00;;;;;;;17.78;36.27;98211.94;4995152;28;20202;-80
2022/03/09 10:51:50;;;;;;;4.10;3.70;;;;;;;17.78;35.96;98207.75;5001056;28;20202;-79
2022/03/09 10:54:27;;;;;;;4.23;3.80;;;;;;;17.12;35.85;98086.25;5000999;28;20205;-79
2022/03/09 10:57:03;;;;;;;5.23;4.10;;;;;;;17.79;36.06;98194.25;4987235;28;20285;-79
2022/03/09 10:59:42;;;;;;;4.80;4.03;;;;;;;17.79;35.87;98190.81;5010925;28;20202;-80
2022/03/09 11:02:10;;;;;;;4.63;3.80;;;;;;;17.78;36.08;98187.41;4979669;28;20780;-79
2022/03/09 11:04:37;;;;;;;4.23;3.83;;;;;;;17.41;36.06;98122.59;5009561;28;20277;-79
2022/03/09 11:07:04;;;;;;;4.30;3.90;;;;;;;16.93;36.53;98032.72;5010892;28;20202;-79
2022/03/09 11:09:31;;;;;;;4.33;3.93;;;;;;;17.78;36.38;98177.25;5009569;28;20216;-80
2022/03/09 11:11:57;;;;;;;4.23;3.80;;;;;;;16.52;36.04;97956.81;4990028;28;20257;-79
2022/03/09 11:14:26;;;;;;;4.33;3.60;;;;;;;17.46;36.19;98121.25;4973514;28;20257;-79
2022/03/09 11:16:54;;;;;;;4.30;3.90;;;;;;;17.82;36.16;98176.59;4994065;28;20198;-81
2022/03/09 11:19:21;;;;;;;4.27;3.60;;;;;;;16.73;36.47;97991.00;5001948;28;20245;-79
2022/03/09 11:21:47;;;;;;;3.93;3.60;;;;;;;17.83;35.92;98175.81;4991842;28;20281;-79
2022/03/09 11:24:17;;;;;;;4.07;3.67;;;;;;;17.10;36.07;98055.69;5010933;28;20194;-79
2022/03/09 11:26:46;;;;;;;4.77;3.70;;;;;;;17.84;36.19;98179.22;5009909;28;20198;-79
2022/03/09 11:29:13;;;;;;;4.30;3.90;;;;;;;17.27;36.34;98072.75;5009724;28;20253;-77
2022/03/09 11:31:47;;;;;;;4.00;3.60;;;;;;;17.84;36.64;98169.94;4993615;28;20206;-79
2022/03/09 11:34:32;;;;;;;3.90;3.50;;;;;;;17.85;36.71;98158.09;4993418;28;20292;-79
2022/03/09 11:37:04;;;;;;;4.00;3.60;;;;;;;17.27;36.72;98059.16;5011228;28;20249;-79
2022/03/09 11:39:30;;;;;;;5.30;3.60;;;;;;;17.49;36.38;98096.00;5008867;28;20241;-80
2022/03/09 11:42:19;;;;;;;3.80;3.50;;;;;;;17.85;36.16;98156.44;4994957;28;20660;-79
2022/03/09 11:45:13;;;;;;;4.43;4.03;;;;;;;16.88;36.19;97979.16;5006220;28;20198;-79
2022/03/09 11:47:58;;;;;;;7.00;3.47;;;;;;;17.86;36.66;98152.22;5009044;28;20202;-79
2022/03/09 11:50:25;;;;;;;3.70;3.37;;;;;;;17.58;36.17;98106.66;5008627;28;20233;-79
2022/03/09 11:53:02;;;;;;;4.10;3.60;;;;;;;17.86;36.34;98148.00;4976676;28;20276;-78
2022/03/09 11:55:29;;;;;;;4.17;3.50;;;;;;;17.45;36.58;98080.50;5009553;28;20198;-79
2022/03/09 11:57:55;;;;;;;3.80;3.47;;;;;;;17.87;36.12;98138.72;4995903;28;20328;-79
2022/03/09 12:00:22;;;;;;;3.50;3.20;;;;;;;16.89;36.58;97965.66;5014230;28;20207;-79
2022/03/09 12:02:55;;;;;;;3.93;3.47;;;;;;;16.31;36.33;97864.28;4996808;28;20264;-79
2022/03/09 12:05:25;;;;;;;4.77;3.43;;;;;;;17.87;36.37;98137.06;4996557;28;20332;-79
2022/03/09 12:08:00;;;;;;;3.50;3.20;;;;;;;17.85;36.63;98138.63;5013719;28;20233;-79
2022/03/09 12:10:54;;;;;;;3.63;3.33;;;;;;;17.85;36.35;98130.13;5005317;28;20294;-80
2022/03/09 12:13:37;;;;;;;4.27;3.57;;;;;;;16.68;36.05;97921.34;4993204;28;20262;-79
2022/03/09 12:16:12;;;;;;;3.23;2.93;;;;;;;17.51;36.88;98069.00;4991557;28;20294;-80